createdAt,value
2023-04-11T00:00:00.424Z,100712.69
2023-04-11T00:02:27.484Z,100711.16
2023-04-11T00:04:55.152Z,100712.72
2023-04-11T00:07:22.097Z,100706.38
2023-04-11T00:09:51.357Z,100711.09
2023-04-11T00:12:19.805Z,100709.81
2023-04-11T00:14:49.099Z,100714.66
2023-04-11T00:17:17.797Z,100722.72
2023-04-11T00:19:46.253Z,100708.03
2023-04-11T00:22:18.024Z,100708.28
2023-04-11T00:24:45.760Z,100709.16
2023-04-11T00:27:12.435Z,100704.22
2023-04-11T00:29:39.577Z,100707.66
2023-04-11T00:32:06.944Z,100700.31
2023-04-11T00:34:34.564Z,100703.72
2023-04-11T00:37:01.863Z,100706.09
2023-04-11T00:39:30.435Z,100713.06
2023-04-11T00:42:08.624Z,100713.44
2023-04-11T00:44:36.665Z,100716.31
2023-04-11T00:47:06.334Z,100721.19
2023-04-11T00:49:33.380Z,100718.16
2023-04-11T00:52:00.506Z,100725.72
2023-04-11T00:54:30.587Z,100729.78
2023-04-11T00:56:59.779Z,100722.44
2023-04-11T00:59:30.915Z,100721.69
2023-04-11T01:01:58.576Z,100716.63
2023-04-11T01:04:26.261Z,100703.97
2023-04-11T01:06:59.735Z,100702.44
2023-04-11T01:09:27.894Z,100703.84
2023-04-11T01:11:55.167Z,100715.19
2023-04-11T01:14:22.964Z,100717.34
2023-04-11T01:16:50.854Z,100733.34
2023-04-11T01:19:20.021Z,100739.69
2023-04-11T01:21:48.314Z,100718.19
2023-04-11T01:24:15.113Z,100725.84
2023-04-11T01:26:42.302Z,100725.22
2023-04-11T01:29:09.205Z,100728.75
2023-04-11T01:31:36.732Z,100725.66
2023-04-11T01:34:04.611Z,100730.81
2023-04-11T01:36:32.394Z,100733.03
2023-04-11T01:38:59.610Z,100730.63
2023-04-11T01:41:29.730Z,100741.97
2023-04-11T01:43:57.084Z,100737.50
2023-04-11T01:46:24.852Z,100741.50
2023-04-11T01:48:54.195Z,100742.94
2023-04-11T01:51:21.344Z,100734.31
2023-04-11T01:53:48.124Z,100736.88
2023-04-11T01:56:15.296Z,100737.50
2023-04-11T01:58:42.218Z,100741.31
2023-04-11T02:01:09.092Z,100758.25
2023-04-11T02:03:37.090Z,100755.47
2023-04-11T02:06:04.568Z,100772.09
2023-04-11T02:08:31.552Z,100765.03
2023-04-11T02:10:58.484Z,100781.31
2023-04-11T02:13:25.307Z,100788.00
2023-04-11T02:15:52.472Z,100776.44
2023-04-11T02:18:19.507Z,100787.38
2023-04-11T02:20:46.300Z,100778.59
2023-04-11T02:23:14.264Z,100794.16
2023-04-11T02:25:41.427Z,100787.09
2023-04-11T02:28:08.448Z,100792.25
2023-04-11T02:30:35.452Z,100789.34
2023-04-11T02:33:03.283Z,100778.16
2023-04-11T02:35:30.224Z,100783.09
2023-04-11T02:38:00.148Z,100783.41
2023-04-11T02:40:26.956Z,100783.06
2023-04-11T02:42:53.901Z,100781.97
2023-04-11T02:45:21.522Z,100780.72
2023-04-11T02:47:48.552Z,100785.94
2023-04-11T02:50:16.161Z,100788.69
2023-04-11T02:52:49.604Z,100785.16
2023-04-11T02:55:22.953Z,100786.09
2023-04-11T02:57:50.836Z,100797.66
2023-04-11T03:00:20.226Z,100795.63
2023-04-11T03:02:56.914Z,100794.84
2023-04-11T03:05:25.104Z,100803.38
2023-04-11T03:07:53.892Z,100809.25
2023-04-11T03:10:20.779Z,100812.31
2023-04-11T03:12:47.906Z,100814.03
2023-04-11T03:15:15.683Z,100822.91
2023-04-11T03:17:42.723Z,100819.75
2023-04-11T03:20:14.048Z,100817.41
2023-04-11T03:22:46.850Z,100821.38
2023-04-11T03:25:14.880Z,100836.97
2023-04-11T03:27:42.958Z,100839.75
2023-04-11T03:30:11.674Z,100828.56
2023-04-11T03:32:42.081Z,100841.09
2023-04-11T03:35:09.858Z,100834.97
2023-04-11T03:37:39.984Z,100836.06
2023-04-11T03:40:08.562Z,100838.38
2023-04-11T03:42:38.263Z,100828.13
2023-04-11T03:45:08.187Z,100838.47
2023-04-11T03:47:35.649Z,100834.94
2023-04-11T03:50:04.097Z,100842.91
2023-04-11T03:52:37.778Z,100846.72
2023-04-11T03:55:10.059Z,100846.53
2023-04-11T03:57:36.844Z,100855.94
2023-04-11T04:00:06.317Z,100864.44
2023-04-11T04:02:42.304Z,100859.50
2023-04-11T04:05:13.416Z,100865.69
2023-04-11T04:07:40.987Z,100872.56
2023-04-11T04:10:24.336Z,100867.47
2023-04-11T04:12:53.648Z,100866.69
2023-04-11T04:15:24.006Z,100864.03
2023-04-11T04:17:52.258Z,100860.56
2023-04-11T04:20:26.956Z,100859.38
2023-04-11T04:22:58.113Z,100873.81
2023-04-11T04:25:34.826Z,100867.16
2023-04-11T04:28:01.639Z,100875.88
2023-04-11T04:30:38.255Z,100878.28
2023-04-11T04:33:12.451Z,100882.56
2023-04-11T04:35:45.150Z,100879.88
2023-04-11T04:38:18.051Z,100879.16
2023-04-11T04:40:54.908Z,100887.03
2023-04-11T04:43:24.561Z,100891.63
2023-04-11T04:46:06.167Z,100892.50
2023-04-11T04:48:40.564Z,100905.44
2023-04-11T04:51:08.234Z,100904.19
2023-04-11T04:53:39.044Z,100905.47
2023-04-11T04:56:08.635Z,100905.13
2023-04-11T04:58:39.436Z,100910.38
2023-04-11T05:01:11.483Z,100916.91
2023-04-11T05:03:39.511Z,100917.47
2023-04-11T05:06:11.596Z,100907.75
2023-04-11T05:08:39.832Z,100916.44
2023-04-11T05:11:09.247Z,100923.63
2023-04-11T05:13:37.174Z,100924.59
2023-04-11T05:16:05.534Z,100920.66
2023-04-11T05:18:32.592Z,100924.25
2023-04-11T05:20:59.390Z,100920.25
2023-04-11T05:23:33.413Z,100928.63
2023-04-11T05:26:02.339Z,100928.19
2023-04-11T05:28:31.677Z,100944.09
2023-04-11T05:30:59.267Z,100927.13
2023-04-11T05:33:27.791Z,100935.16
2023-04-11T05:35:56.128Z,100939.00
2023-04-11T05:38:23.860Z,100934.66
2023-04-11T05:40:50.725Z,100936.78
2023-04-11T05:43:19.398Z,100939.44
2023-04-11T05:45:48.262Z,100948.72
2023-04-11T05:48:22.959Z,100958.38
2023-04-11T05:50:54.116Z,100949.75
2023-04-11T05:53:21.384Z,100957.09
2023-04-11T05:55:48.130Z,100962.69
2023-04-11T05:58:15.028Z,100974.25
2023-04-11T06:00:42.099Z,100969.16
2023-04-11T06:03:09.620Z,100965.78
2023-04-11T06:05:36.575Z,100962.97
2023-04-11T06:08:05.146Z,100977.31
2023-04-11T06:10:32.101Z,100976.09
2023-04-11T06:12:59.178Z,100974.50
2023-04-11T06:15:27.149Z,100980.66
2023-04-11T06:17:54.579Z,100988.84
2023-04-11T06:20:22.360Z,100989.53
2023-04-11T06:22:51.619Z,100984.31
2023-04-11T06:25:20.055Z,100985.19
2023-04-11T06:27:47.399Z,100981.47
2023-04-11T06:30:14.670Z,100982.16
2023-04-11T06:32:41.597Z,100972.78
2023-04-11T06:35:09.149Z,100987.22
2023-04-11T06:37:36.043Z,100988.50
2023-04-11T06:40:05.675Z,100987.03
2023-04-11T06:42:32.751Z,100986.56
2023-04-11T06:44:59.558Z,100992.50
2023-04-11T06:47:26.805Z,100993.97
2023-04-11T06:49:53.540Z,101001.50
2023-04-11T06:52:20.275Z,100999.03
2023-04-11T06:54:48.178Z,101006.75
2023-04-11T06:57:15.016Z,101017.72
2023-04-11T06:59:41.747Z,101031.28
2023-04-11T07:02:08.576Z,101024.88
2023-04-11T07:04:35.484Z,101030.09
2023-04-11T07:07:02.284Z,101037.25
2023-04-11T07:09:29.009Z,101038.88
2023-04-11T07:11:56.334Z,101035.97
2023-04-11T07:14:23.130Z,101046.66
2023-04-11T07:16:49.924Z,101039.22
2023-04-11T07:19:16.568Z,101038.44
2023-04-11T07:21:43.627Z,101037.75
2023-04-11T07:24:11.168Z,101054.66
2023-04-11T07:26:38.989Z,101047.69
2023-04-11T07:29:09.113Z,101045.13
2023-04-11T07:31:37.479Z,101068.50
2023-04-11T07:34:04.272Z,101052.66
2023-04-11T07:36:31.958Z,101058.25
2023-04-11T07:39:00.150Z,101066.59
2023-04-11T07:41:27.251Z,101061.28
2023-04-11T07:43:54.161Z,101070.69
2023-04-11T07:46:21.061Z,101058.50
2023-04-11T07:48:47.723Z,101060.97
2023-04-11T07:51:15.114Z,101064.47
2023-04-11T07:53:42.095Z,101055.09
2023-04-11T07:56:09.349Z,101063.13
2023-04-11T07:58:36.469Z,101070.81
2023-04-11T08:01:04.076Z,101060.03
2023-04-11T08:03:31.625Z,101054.06
2023-04-11T08:05:58.863Z,101062.25
2023-04-11T08:08:26.354Z,101063.53
2023-04-11T08:10:53.052Z,101067.72
2023-04-11T08:13:27.350Z,101066.09
2023-04-11T08:15:57.801Z,101063.31
2023-04-11T08:18:25.552Z,101051.16
2023-04-11T08:20:52.952Z,101080.41
2023-04-11T08:23:21.622Z,101072.84
2023-04-11T08:25:48.364Z,101073.34
2023-04-11T08:28:17.038Z,101075.22
2023-04-11T08:30:43.840Z,101078.94
2023-04-11T08:33:12.535Z,101090.41
2023-04-11T08:35:43.095Z,101081.25
2023-04-11T08:38:09.892Z,101071.53
2023-04-11T08:40:36.806Z,101081.47
2023-04-11T08:43:03.979Z,101081.81
2023-04-11T08:45:31.058Z,101084.16
2023-04-11T08:47:58.288Z,101087.59
2023-04-11T08:50:26.265Z,101088.28
2023-04-11T08:52:53.202Z,101088.63
2023-04-11T08:55:20.881Z,101084.78
2023-04-11T08:57:47.787Z,101092.50
2023-04-11T09:00:15.394Z,101082.19
2023-04-11T09:03:03.353Z,101093.97
2023-04-11T09:05:33.589Z,101104.09
2023-04-11T09:08:04.638Z,101106.38
2023-04-11T09:10:31.569Z,101095.88
2023-04-11T09:12:59.046Z,101100.28
2023-04-11T09:15:30.289Z,101091.75
2023-04-11T09:18:00.284Z,101103.25
2023-04-11T09:20:30.424Z,101092.53
2023-04-11T09:22:59.117Z,101095.44
2023-04-11T09:25:25.935Z,101104.00
2023-04-11T09:28:08.291Z,101085.50
2023-04-11T09:30:35.304Z,101096.81
2023-04-11T09:33:24.175Z,101093.97
2023-04-11T09:35:53.547Z,101094.13
2023-04-11T09:38:35.155Z,101099.00
2023-04-11T09:41:03.885Z,101096.50
2023-04-11T09:43:50.879Z,101093.50
2023-04-11T09:46:21.080Z,101093.16
2023-04-11T09:48:53.092Z,101090.47
2023-04-11T09:51:35.241Z,101086.19
2023-04-11T09:54:04.898Z,101098.19
2023-04-11T09:56:35.045Z,101095.91
2023-04-11T09:59:02.827Z,101099.47
2023-04-11T10:01:29.552Z,101089.09
2023-04-11T10:03:57.745Z,101089.28
2023-04-11T10:06:35.070Z,101099.81
2023-04-11T10:09:10.963Z,101085.56
2023-04-11T10:11:41.409Z,101080.06
2023-04-11T10:14:08.177Z,101081.75
2023-04-11T10:16:35.263Z,101073.16
2023-04-11T10:19:02.014Z,101075.78
2023-04-11T10:21:35.152Z,101082.69
2023-04-11T10:24:20.315Z,101080.03
2023-04-11T10:26:57.639Z,101078.06
2023-04-11T10:29:33.031Z,101077.13
2023-04-11T10:32:19.245Z,101086.81
2023-04-11T10:35:10.681Z,101085.91
2023-04-11T10:37:37.807Z,101083.50
2023-04-11T10:40:11.185Z,101075.66
2023-04-11T10:42:43.004Z,101085.34
2023-04-11T10:45:18.939Z,101081.50
2023-04-11T10:47:52.132Z,101094.25
2023-04-11T10:50:42.219Z,101099.81
2023-04-11T10:53:14.431Z,101095.03
2023-04-11T10:55:50.742Z,101094.13
2023-04-11T10:58:22.375Z,101089.03
2023-04-11T11:00:55.794Z,101082.13
2023-04-11T11:03:30.834Z,101076.91
2023-04-11T11:06:04.056Z,101082.28
2023-04-11T11:08:33.458Z,101081.22
2023-04-11T11:11:07.034Z,101068.22
2023-04-11T11:13:41.681Z,101070.66
2023-04-11T11:16:11.104Z,101078.31
2023-04-11T11:18:38.845Z,101083.72
2023-04-11T11:21:09.306Z,101074.84
2023-04-11T11:23:47.766Z,101074.44
2023-04-11T11:26:14.549Z,101076.47
2023-04-11T11:28:48.730Z,101081.19
2023-04-11T11:31:15.674Z,101082.22
2023-04-11T11:33:42.773Z,101086.56
2023-04-11T11:36:10.607Z,101090.59
2023-04-11T11:38:37.593Z,101080.53
2023-04-11T11:41:04.705Z,101080.13
2023-04-11T11:43:36.298Z,101078.78
2023-04-11T11:46:08.815Z,101075.56
2023-04-11T11:48:36.277Z,101089.88
2023-04-11T11:51:03.224Z,101070.44
2023-04-11T11:53:30.122Z,101064.25
2023-04-11T11:55:56.893Z,101061.97
2023-04-11T11:58:24.090Z,101067.97
2023-04-11T12:00:51.718Z,101066.75
2023-04-11T12:03:22.554Z,101066.28
2023-04-11T12:05:51.583Z,101064.41
2023-04-11T12:08:20.656Z,101070.50
2023-04-11T12:10:48.127Z,101068.94
2023-04-11T12:13:19.190Z,101065.09
2023-04-11T12:15:57.276Z,101069.06
2023-04-11T12:18:25.852Z,101068.97
2023-04-11T12:20:52.776Z,101060.31
2023-04-11T12:23:20.375Z,101065.97
2023-04-11T12:25:47.670Z,101057.56
2023-04-11T12:28:14.686Z,101060.66
2023-04-11T12:30:41.701Z,101051.31
2023-04-11T12:33:08.761Z,101066.00
2023-04-11T12:35:35.624Z,101055.41
2023-04-11T12:38:02.413Z,101066.25
2023-04-11T12:40:29.830Z,101076.41
2023-04-11T12:42:57.471Z,101082.25
2023-04-11T12:45:24.778Z,101081.03
2023-04-11T12:47:51.663Z,101072.28
2023-04-11T12:50:18.536Z,101072.50
2023-04-11T12:52:45.537Z,101067.59
2023-04-11T12:55:13.177Z,101066.69
2023-04-11T12:57:41.091Z,101059.72
2023-04-11T13:00:08.969Z,101071.00
2023-04-11T13:02:43.789Z,101076.06
2023-04-11T13:05:14.679Z,101070.78
2023-04-11T13:07:42.692Z,101058.09
2023-04-11T13:10:10.260Z,101061.19
2023-04-11T13:12:41.602Z,101060.34
2023-04-11T13:15:09.866Z,101050.09
2023-04-11T13:17:36.805Z,101054.66
2023-04-11T13:20:13.334Z,101043.31
2023-04-11T13:22:41.415Z,101031.16
2023-04-11T13:25:08.852Z,101036.41
2023-04-11T13:27:36.400Z,101028.56
2023-04-11T13:30:04.987Z,101034.19
2023-04-11T13:32:32.630Z,101031.38
2023-04-11T13:34:59.557Z,101031.16
2023-04-11T13:37:26.831Z,101037.50
2023-04-11T13:39:53.650Z,101027.44
2023-04-11T13:42:21.849Z,101027.50
2023-04-11T13:44:48.520Z,101020.78
2023-04-11T13:47:15.536Z,101013.66
2023-04-11T13:49:42.369Z,101004.97
2023-04-11T13:52:09.181Z,101007.28
2023-04-11T13:54:38.150Z,101001.81
2023-04-11T13:57:07.800Z,100995.69
2023-04-11T13:59:34.833Z,100994.19
2023-04-11T14:02:02.822Z,101000.56
2023-04-11T14:04:29.913Z,100994.66
2023-04-11T14:06:57.223Z,100989.88
2023-04-11T14:09:24.213Z,100979.16
2023-04-11T14:11:51.282Z,100976.97
2023-04-11T14:14:18.138Z,100973.69
2023-04-11T14:16:45.177Z,100976.47
2023-04-11T14:19:11.918Z,100974.44
2023-04-11T14:21:38.795Z,100964.94
2023-04-11T14:24:05.911Z,100958.81
2023-04-11T14:26:32.620Z,100967.81
2023-04-11T14:28:59.538Z,100970.78
2023-04-11T14:31:26.562Z,100964.03
2023-04-11T14:33:53.797Z,100956.31
2023-04-11T14:36:20.610Z,100968.19
2023-04-11T14:38:47.408Z,100967.84
2023-04-11T14:41:14.178Z,100958.94
2023-04-11T14:43:41.274Z,100966.66
2023-04-11T14:46:08.141Z,100954.53
2023-04-11T14:48:35.088Z,100942.06
2023-04-11T14:51:05.470Z,100942.41
2023-04-11T14:53:32.509Z,100945.78
2023-04-11T14:55:59.367Z,100939.69
2023-04-11T14:58:26.361Z,100943.41
2023-04-11T15:00:53.211Z,100941.38
2023-04-11T15:03:20.296Z,100945.84
2023-04-11T15:05:52.897Z,100934.53
2023-04-11T15:08:19.745Z,100935.38
2023-04-11T15:10:46.460Z,100930.47
2023-04-11T15:13:13.227Z,100928.81
2023-04-11T15:15:40.360Z,100921.38
2023-04-11T15:18:21.977Z,100910.16
2023-04-11T15:20:49.410Z,100923.19
2023-04-11T15:23:16.637Z,100923.88
2023-04-11T15:25:43.672Z,100932.72
2023-04-11T15:28:11.154Z,100938.28
2023-04-11T15:30:47.026Z,100939.38
2023-04-11T15:33:14.199Z,100928.16
2023-04-11T15:35:44.519Z,100930.81
2023-04-11T15:38:12.761Z,100933.00
2023-04-11T15:40:40.127Z,100922.13
2023-04-11T15:43:07.602Z,100911.97
2023-04-11T15:45:38.480Z,100921.03
2023-04-11T15:48:05.768Z,100917.84
2023-04-11T15:50:32.843Z,100913.50
2023-04-11T15:53:00.387Z,100909.59
2023-04-11T15:55:27.399Z,100904.84
2023-04-11T15:58:01.311Z,100907.69
2023-04-11T16:00:37.271Z,100900.09
2023-04-11T16:03:04.945Z,100895.00
2023-04-11T16:05:32.544Z,100887.72
2023-04-11T16:07:59.483Z,100888.38
2023-04-11T16:10:26.833Z,100884.66
2023-04-11T16:12:53.631Z,100880.72
2023-04-11T16:15:20.356Z,100885.88
2023-04-11T16:17:47.389Z,100878.44
2023-04-11T16:20:18.840Z,100881.75
2023-04-11T16:22:46.978Z,100883.41
2023-04-11T16:25:21.202Z,100872.69
2023-04-11T16:27:48.625Z,100869.38
2023-04-11T16:30:16.763Z,100870.88
2023-04-11T16:32:43.890Z,100873.22
2023-04-11T16:35:10.654Z,100864.25
2023-04-11T16:37:37.541Z,100855.97
2023-04-11T16:40:10.693Z,100860.34
2023-04-11T16:42:40.691Z,100863.31
2023-04-11T16:45:08.853Z,100865.59
2023-04-11T16:47:36.079Z,100857.16
2023-04-11T16:50:03.962Z,100860.59
2023-04-11T16:52:31.161Z,100874.50
2023-04-11T16:54:58.551Z,100863.13
2023-04-11T16:57:25.770Z,100873.78
2023-04-11T16:59:52.606Z,100880.50
2023-04-11T17:02:19.407Z,100882.31
2023-04-11T17:04:46.681Z,100878.97
2023-04-11T17:07:13.804Z,100863.72
2023-04-11T17:09:41.531Z,100866.94
2023-04-11T17:12:08.208Z,100866.13
2023-04-11T17:14:36.446Z,100860.19
2023-04-11T17:17:03.642Z,100857.38
2023-04-11T17:19:34.054Z,100854.41
2023-04-11T17:22:01.836Z,100845.06
2023-04-11T17:24:29.389Z,100843.59
2023-04-11T17:26:57.141Z,100844.03
2023-04-11T17:29:23.970Z,100842.97
2023-04-11T17:31:52.027Z,100843.97
2023-04-11T17:34:18.849Z,100843.19
2023-04-11T17:36:46.061Z,100837.44
2023-04-11T17:39:17.588Z,100828.31
2023-04-11T17:41:45.732Z,100821.13
2023-04-11T17:44:13.057Z,100818.59
2023-04-11T17:46:39.905Z,100826.81
2023-04-11T17:49:06.619Z,100821.69
2023-04-11T17:51:33.933Z,100819.63
2023-04-11T17:54:00.799Z,100807.13
2023-04-11T17:56:27.539Z,100805.53
2023-04-11T17:58:56.029Z,100803.19
2023-04-11T18:01:23.820Z,100798.28
2023-04-11T18:03:50.956Z,100780.00
2023-04-11T18:06:18.240Z,100789.84
2023-04-11T18:08:50.528Z,100778.84
2023-04-11T18:11:18.350Z,100781.47
2023-04-11T18:13:46.420Z,100782.13
2023-04-11T18:16:15.778Z,100769.19
2023-04-11T18:18:42.685Z,100763.66
2023-04-11T18:21:09.899Z,100759.38
2023-04-11T18:23:36.779Z,100762.91
2023-04-11T18:26:03.921Z,100754.09
2023-04-11T18:28:30.790Z,100760.78
2023-04-11T18:30:57.685Z,100765.13
2023-04-11T18:33:25.743Z,100763.31
2023-04-11T18:35:52.582Z,100756.72
2023-04-11T18:38:19.496Z,100743.63
2023-04-11T18:40:46.373Z,100747.13
2023-04-11T18:43:14.063Z,100751.22
2023-04-11T18:45:42.224Z,100753.84
2023-04-11T18:48:10.368Z,100749.78
2023-04-11T18:50:39.036Z,100731.31
2023-04-11T18:53:10.660Z,100742.72
2023-04-11T18:55:40.344Z,100726.97
2023-04-11T18:58:09.615Z,100734.91
2023-04-11T19:00:39.784Z,100735.56
2023-04-11T19:03:07.167Z,100733.63
2023-04-11T19:05:34.716Z,100733.63
2023-04-11T19:08:02.875Z,100721.06
2023-04-11T19:10:30.136Z,100721.94
2023-04-11T19:12:56.970Z,100714.66
2023-04-11T19:15:24.082Z,100719.53
2023-04-11T19:17:51.681Z,100705.03
2023-04-11T19:20:19.275Z,100693.59
2023-04-11T19:22:46.567Z,100695.19
2023-04-11T19:25:13.393Z,100690.38
2023-04-11T19:27:41.990Z,100679.38
2023-04-11T19:30:11.232Z,100670.19
2023-04-11T19:32:38.802Z,100662.94
2023-04-11T19:35:08.886Z,100674.94
2023-04-11T19:37:36.642Z,100655.66
2023-04-11T19:40:07.540Z,100657.00
2023-04-11T19:42:37.051Z,100662.66
2023-04-11T19:45:05.008Z,100645.22
2023-04-11T19:47:32.790Z,100637.38
2023-04-11T19:50:01.325Z,100635.38
2023-04-11T19:52:28.683Z,100633.88
2023-04-11T19:54:56.716Z,100622.75
2023-04-11T19:57:25.621Z,100624.66
2023-04-11T19:59:52.388Z,100619.56
2023-04-11T20:02:19.446Z,100604.50
2023-04-11T20:04:46.667Z,100601.88
2023-04-11T20:07:13.552Z,100604.84
2023-04-11T20:09:40.363Z,100593.88
2023-04-11T20:12:07.436Z,100599.75
2023-04-11T20:14:34.507Z,100593.50
2023-04-11T20:17:05.334Z,100591.47
2023-04-11T20:19:33.353Z,100580.19
2023-04-11T20:22:03.673Z,100578.66
2023-04-11T20:24:30.806Z,100591.22
2023-04-11T20:26:58.162Z,100588.94
2023-04-11T20:29:30.924Z,100577.94
2023-04-11T20:31:58.415Z,100580.78
2023-04-11T20:34:25.477Z,100574.16
2023-04-11T20:36:52.657Z,100566.63
2023-04-11T20:39:19.624Z,100565.91
2023-04-11T20:41:47.353Z,100562.41
2023-04-11T20:44:19.222Z,100561.16
2023-04-11T20:46:46.365Z,100558.66
2023-04-11T20:49:13.349Z,100557.84
2023-04-11T20:51:41.254Z,100548.38
2023-04-11T20:54:11.123Z,100542.34
2023-04-11T20:56:38.322Z,100539.19
2023-04-11T20:59:05.314Z,100543.81
2023-04-11T21:01:33.033Z,100550.47
2023-04-11T21:04:03.693Z,100544.81
2023-04-11T21:06:34.468Z,100538.22
2023-04-11T21:09:05.944Z,100524.84
2023-04-11T21:11:33.746Z,100517.38
2023-04-11T21:14:00.659Z,100517.88
2023-04-11T21:16:28.303Z,100514.91
2023-04-11T21:18:55.199Z,100525.75
2023-04-11T21:21:21.972Z,100511.22
2023-04-11T21:23:48.829Z,100502.56
2023-04-11T21:26:15.626Z,100502.84
2023-04-11T21:28:44.530Z,100488.75
2023-04-11T21:31:15.672Z,100488.94
2023-04-11T21:34:05.883Z,100490.72
2023-04-11T21:36:34.577Z,100473.38
2023-04-11T21:39:01.796Z,100462.16
2023-04-11T21:41:34.864Z,100464.72
2023-04-11T21:44:02.901Z,100452.47
2023-04-11T21:46:30.501Z,100446.59
2023-04-11T21:48:59.369Z,100439.91
2023-04-11T21:51:27.626Z,100449.81
2023-04-11T21:53:59.277Z,100454.75
2023-04-11T21:56:26.130Z,100447.41
2023-04-11T21:58:52.947Z,100446.75
2023-04-11T22:01:21.666Z,100439.06
2023-04-11T22:03:56.984Z,100437.69
2023-04-11T22:06:26.679Z,100424.38
2023-04-11T22:08:54.305Z,100410.88
2023-04-11T22:11:24.444Z,100408.09
2023-04-11T22:13:52.946Z,100403.72
2023-04-11T22:16:30.433Z,100411.25
2023-04-11T22:19:07.872Z,100401.66
2023-04-11T22:21:34.842Z,100383.00
2023-04-11T22:24:02.406Z,100369.00
2023-04-11T22:26:43.989Z,100361.72
2023-04-11T22:29:12.417Z,100361.88
2023-04-11T22:31:44.182Z,100364.28
2023-04-11T22:34:18.927Z,100348.91
2023-04-11T22:36:47.649Z,100337.28
2023-04-11T22:39:14.651Z,100335.88
2023-04-11T22:41:44.757Z,100339.31
2023-04-11T22:44:14.614Z,100330.16
2023-04-11T22:47:09.004Z,100328.41
2023-04-11T22:49:42.411Z,100317.84
2023-04-11T22:52:14.252Z,100316.72
2023-04-11T22:54:43.087Z,100298.81
2023-04-11T22:57:16.064Z,100288.75
2023-04-11T22:59:43.005Z,100289.91
2023-04-11T23:02:10.220Z,100275.59
2023-04-11T23:04:37.210Z,100274.16
2023-04-11T23:07:05.459Z,100269.84
2023-04-11T23:09:32.330Z,100282.53
2023-04-11T23:11:58.995Z,100263.13
2023-04-11T23:14:31.324Z,100268.91
2023-04-11T23:16:58.587Z,100266.50
2023-04-11T23:19:25.644Z,100255.44
2023-04-11T23:21:52.531Z,100241.16
2023-04-11T23:24:19.392Z,100221.34
2023-04-11T23:26:46.535Z,100231.03
2023-04-11T23:29:13.403Z,100223.06
2023-04-11T23:31:40.674Z,100221.47
2023-04-11T23:34:07.449Z,100205.00
2023-04-11T23:36:34.604Z,100204.19
2023-04-11T23:39:02.119Z,100196.50
2023-04-11T23:41:30.333Z,100175.47
2023-04-11T23:43:57.415Z,100175.03
2023-04-11T23:46:24.737Z,100172.59
2023-04-11T23:48:52.969Z,100157.22
2023-04-11T23:51:19.703Z,100147.97
2023-04-11T23:53:46.473Z,100136.81
2023-04-11T23:56:14.009Z,100130.38
2023-04-11T23:58:41.010Z,100111.66
